createdAt,value
2023-03-26T00:01:23.851Z,94416.16
2023-03-26T00:03:53.924Z,94412.13
2023-03-26T00:06:22.850Z,94400.34
2023-03-26T00:08:50.069Z,94401.84
2023-03-26T00:11:20.824Z,94403.41
2023-03-26T00:13:47.714Z,94404.00
2023-03-26T00:16:16.319Z,94415.59
2023-03-26T00:18:43.638Z,94421.44
2023-03-26T00:21:13.410Z,94439.53
2023-03-26T00:23:39.986Z,94438.19
2023-03-26T00:26:10.512Z,94432.91
2023-03-26T00:28:40.335Z,94433.91
2023-03-26T00:31:09.190Z,94434.41
2023-03-26T00:33:40.529Z,94426.81
2023-03-26T00:36:10.809Z,94421.66
2023-03-26T00:38:39.091Z,94417.88
2023-03-26T00:41:08.094Z,94413.06
2023-03-26T00:43:36.239Z,94399.38
2023-03-26T00:46:05.046Z,94411.22
2023-03-26T00:48:42.203Z,94404.56
2023-03-26T00:51:15.226Z,94403.66
2023-03-26T00:53:42.695Z,94402.72
2023-03-26T00:56:09.915Z,94408.56
2023-03-26T00:58:37.158Z,94403.19
2023-03-26T01:01:07.885Z,94387.66
2023-03-26T01:03:36.518Z,94393.72
2023-03-26T01:06:08.021Z,94387.63
2023-03-26T01:08:38.403Z,94370.75
2023-03-26T01:11:14.025Z,94386.78
2023-03-26T01:13:43.365Z,94378.41
2023-03-26T01:16:20.350Z,94375.91
2023-03-26T01:18:48.713Z,94373.19
2023-03-26T01:21:22.633Z,94375.81
2023-03-26T01:23:59.789Z,94367.88
2023-03-26T01:26:48.443Z,94365.34
2023-03-26T01:29:21.038Z,94370.50
2023-03-26T01:31:56.688Z,94370.38
2023-03-26T01:34:37.410Z,94363.06
2023-03-26T01:37:15.297Z,94368.63
2023-03-26T01:39:53.006Z,94364.09
2023-03-26T01:42:28.062Z,94367.16
2023-03-26T01:44:59.411Z,94363.75
2023-03-26T01:47:27.306Z,94356.75
2023-03-26T01:49:53.944Z,94358.72
2023-03-26T01:52:25.100Z,94352.88
2023-03-26T01:54:54.580Z,94346.75
2023-03-26T01:57:32.773Z,94348.28
2023-03-26T02:00:12.109Z,94353.22
2023-03-26T02:02:50.709Z,94350.13
2023-03-26T02:05:23.711Z,94360.91
2023-03-26T02:07:58.551Z,94361.53
2023-03-26T02:10:29.667Z,94348.75
2023-03-26T02:12:58.021Z,94339.34
2023-03-26T02:15:25.221Z,94346.19
2023-03-26T02:17:53.044Z,94342.28
2023-03-26T02:20:21.167Z,94324.84
2023-03-26T02:22:48.058Z,94328.09
2023-03-26T02:25:17.588Z,94324.28
2023-03-26T02:27:46.416Z,94318.44
2023-03-26T02:30:16.011Z,94315.81
2023-03-26T02:32:43.778Z,94309.03
2023-03-26T02:35:11.430Z,94302.94
2023-03-26T02:37:38.332Z,94303.50
2023-03-26T02:40:10.958Z,94305.34
2023-03-26T02:42:38.304Z,94301.69
2023-03-26T02:45:07.199Z,94295.84
2023-03-26T02:47:33.949Z,94285.28
2023-03-26T02:50:01.467Z,94280.00
2023-03-26T02:52:28.035Z,94275.53
2023-03-26T02:54:54.647Z,94272.41
2023-03-26T02:57:21.412Z,94269.78
2023-03-26T02:59:50.322Z,94266.34
2023-03-26T03:02:19.357Z,94266.00
2023-03-26T03:04:46.038Z,94265.53
2023-03-26T03:07:14.905Z,94269.59
2023-03-26T03:09:41.670Z,94262.38
2023-03-26T03:12:08.336Z,94254.38
2023-03-26T03:14:34.942Z,94248.50
2023-03-26T03:17:01.571Z,94241.78
2023-03-26T03:19:29.473Z,94240.53
2023-03-26T03:21:56.197Z,94246.78
2023-03-26T03:24:23.424Z,94247.69
2023-03-26T03:26:50.340Z,94253.53
2023-03-26T03:29:17.371Z,94257.28
2023-03-26T03:31:43.946Z,94247.69
2023-03-26T03:34:10.595Z,94241.91
2023-03-26T03:36:38.745Z,94244.63
2023-03-26T03:39:05.539Z,94229.69
2023-03-26T03:41:32.138Z,94232.41
2023-03-26T03:43:59.845Z,94227.53
2023-03-26T03:46:26.559Z,94223.13
2023-03-26T03:48:53.168Z,94223.13
2023-03-26T03:51:19.823Z,94221.28
2023-03-26T03:53:47.779Z,94221.06
2023-03-26T03:56:14.806Z,94208.44
2023-03-26T03:58:42.210Z,94215.97
2023-03-26T04:01:08.933Z,94217.28
2023-03-26T04:03:38.818Z,94210.19
2023-03-26T04:06:07.024Z,94209.38
2023-03-26T04:08:34.708Z,94170.22
2023-03-26T04:11:03.039Z,94199.81
2023-03-26T04:13:29.638Z,94189.97
2023-03-26T04:15:56.860Z,94187.19
2023-03-26T04:18:23.889Z,94171.03
2023-03-26T04:20:50.774Z,94158.09
2023-03-26T04:23:18.894Z,94164.69
2023-03-26T04:25:49.459Z,94156.06
2023-03-26T04:28:26.636Z,94144.78
2023-03-26T04:30:54.598Z,94141.25
2023-03-26T04:33:21.464Z,94144.28
2023-03-26T04:35:48.470Z,94139.31
2023-03-26T04:38:16.802Z,94122.41
2023-03-26T04:40:47.235Z,94108.94
2023-03-26T04:43:16.388Z,94108.72
2023-03-26T04:45:45.830Z,94106.16
2023-03-26T04:48:15.701Z,94109.34
2023-03-26T04:50:42.875Z,94100.19
2023-03-26T04:53:13.490Z,94097.06
2023-03-26T04:55:45.472Z,94104.97
2023-03-26T04:58:14.343Z,94099.69
2023-03-26T05:00:41.468Z,94092.59
2023-03-26T05:03:11.740Z,94097.16
2023-03-26T05:05:39.316Z,94099.03
2023-03-26T05:08:06.613Z,94087.78
2023-03-26T05:10:33.356Z,94090.66
2023-03-26T05:12:59.978Z,94095.94
2023-03-26T05:15:26.680Z,94099.69
2023-03-26T05:17:55.446Z,94096.25
2023-03-26T05:20:30.177Z,94098.00
2023-03-26T05:22:56.915Z,94090.69
2023-03-26T05:25:23.766Z,94081.94
2023-03-26T05:27:50.447Z,94077.25
2023-03-26T05:30:19.257Z,94067.50
2023-03-26T05:32:48.786Z,94069.31
2023-03-26T05:35:19.302Z,94073.56
2023-03-26T05:37:48.000Z,94082.84
2023-03-26T05:40:16.698Z,94081.25
2023-03-26T05:42:43.979Z,94084.19
2023-03-26T05:45:13.351Z,94082.63
2023-03-26T05:47:40.216Z,94087.13
2023-03-26T05:50:08.868Z,94076.94
2023-03-26T05:52:35.511Z,94077.16
2023-03-26T05:55:03.921Z,94073.16
2023-03-26T05:57:30.909Z,94071.41
2023-03-26T05:59:57.529Z,94071.41
2023-03-26T06:02:24.291Z,94066.38
2023-03-26T06:04:51.073Z,94062.69
2023-03-26T06:07:18.391Z,94051.44
2023-03-26T06:09:45.234Z,94057.56
2023-03-26T06:12:13.409Z,94052.34
2023-03-26T06:14:42.617Z,94057.16
2023-03-26T06:17:10.263Z,94050.34
2023-03-26T06:19:36.886Z,94041.97
2023-03-26T06:22:04.652Z,94029.81
2023-03-26T06:24:32.307Z,94019.84
2023-03-26T06:26:58.875Z,94003.25
2023-03-26T06:29:27.199Z,94013.22
2023-03-26T06:31:53.971Z,94003.84
2023-03-26T06:34:21.104Z,93992.91
2023-03-26T06:36:48.822Z,93985.00
2023-03-26T06:39:15.992Z,93983.75
2023-03-26T06:41:42.587Z,93972.25
2023-03-26T06:44:09.364Z,93970.09
2023-03-26T06:46:37.676Z,93966.31
2023-03-26T06:49:04.617Z,93953.59
2023-03-26T06:51:31.191Z,93958.97
2023-03-26T06:53:59.806Z,93957.38
2023-03-26T06:56:26.392Z,93962.16
2023-03-26T06:58:53.007Z,93952.25
2023-03-26T07:01:19.730Z,93958.97
2023-03-26T07:03:47.735Z,93950.34
2023-03-26T07:06:14.627Z,93941.88
2023-03-26T07:08:41.418Z,93932.84
2023-03-26T07:11:08.097Z,93931.81
2023-03-26T07:13:34.716Z,93921.81
2023-03-26T07:16:01.316Z,93916.00
2023-03-26T07:18:28.002Z,93900.50
2023-03-26T07:20:57.032Z,93892.25
2023-03-26T07:23:24.366Z,93875.16
2023-03-26T07:25:51.909Z,93864.84
2023-03-26T07:28:25.620Z,93868.59
2023-03-26T07:31:07.326Z,93864.38
2023-03-26T07:33:41.962Z,93864.38
2023-03-26T07:36:22.529Z,93873.00
2023-03-26T07:39:00.425Z,93873.56
2023-03-26T07:41:32.772Z,93860.94
2023-03-26T07:44:18.411Z,93846.16
2023-03-26T07:46:47.829Z,93844.81
2023-03-26T07:49:17.800Z,93845.59
2023-03-26T07:51:46.476Z,93850.63
2023-03-26T07:54:16.646Z,93840.34
2023-03-26T07:56:55.857Z,93843.53
2023-03-26T07:59:29.878Z,93828.75
2023-03-26T08:02:24.266Z,93835.38
2023-03-26T08:05:04.771Z,93829.59
2023-03-26T08:07:46.985Z,93825.06
2023-03-26T08:10:21.709Z,93835.13
2023-03-26T08:12:55.639Z,93826.19
2023-03-26T08:15:29.258Z,93814.41
2023-03-26T08:18:01.132Z,93811.31
2023-03-26T08:20:36.466Z,93815.88
2023-03-26T08:23:13.827Z,93820.31
2023-03-26T08:25:53.339Z,93807.34
2023-03-26T08:28:32.063Z,93803.50
2023-03-26T08:31:02.814Z,93795.41
2023-03-26T08:33:30.836Z,93798.59
2023-03-26T08:35:57.673Z,93809.06
2023-03-26T08:38:25.679Z,93822.50
2023-03-26T08:41:38.014Z,93824.34
2023-03-26T08:44:48.746Z,93834.09
2023-03-26T08:47:43.781Z,93836.31
2023-03-26T08:50:36.265Z,93831.28
2023-03-26T08:53:53.606Z,93830.97
2023-03-26T08:56:29.529Z,93815.69
2023-03-26T08:59:26.474Z,93807.91
2023-03-26T09:02:19.558Z,93791.16
2023-03-26T09:05:17.468Z,93787.25
2023-03-26T09:08:10.383Z,93805.16
2023-03-26T09:10:52.142Z,93810.50
2023-03-26T09:13:50.295Z,93808.59
2023-03-26T09:16:58.475Z,93805.94
2023-03-26T09:20:01.654Z,93801.09
2023-03-26T09:22:58.977Z,93794.22
2023-03-26T09:25:48.380Z,93804.41
2023-03-26T09:28:50.236Z,93803.56
2023-03-26T09:31:37.212Z,93802.50
2023-03-26T09:34:27.496Z,93808.88
2023-03-26T09:36:57.277Z,93807.34
2023-03-26T09:39:37.401Z,93802.09
2023-03-26T09:42:17.931Z,93797.06
2023-03-26T09:45:10.649Z,93798.41
2023-03-26T09:47:58.557Z,93786.81
2023-03-26T09:50:37.238Z,93791.28
2023-03-26T09:53:18.750Z,93792.34
2023-03-26T09:56:09.066Z,93775.16
2023-03-26T09:58:52.037Z,93771.72
2023-03-26T10:01:32.080Z,93781.66
2023-03-26T10:04:33.018Z,93787.31
2023-03-26T10:07:08.578Z,93791.59
2023-03-26T10:09:52.122Z,93793.69
2023-03-26T10:12:25.497Z,93801.59
2023-03-26T10:15:04.100Z,93804.47
2023-03-26T10:17:45.622Z,93813.75
2023-03-26T10:20:33.794Z,93807.66
2023-03-26T10:23:14.493Z,93800.78
2023-03-26T10:26:01.407Z,93802.50
2023-03-26T10:28:56.741Z,93808.94
2023-03-26T10:31:39.570Z,93783.13
2023-03-26T10:34:28.042Z,93787.41
2023-03-26T10:37:05.875Z,93817.22
2023-03-26T10:40:00.881Z,93776.03
2023-03-26T10:43:00.993Z,93774.94
2023-03-26T10:45:40.802Z,93789.00
2023-03-26T10:48:34.925Z,93787.06
2023-03-26T10:51:24.668Z,93800.84
2023-03-26T10:53:57.039Z,93783.13
2023-03-26T10:56:27.471Z,93779.19
2023-03-26T10:58:55.238Z,93763.44
2023-03-26T11:01:32.477Z,93745.28
2023-03-26T11:04:10.925Z,93745.53
2023-03-26T11:06:45.610Z,93748.06
2023-03-26T11:09:26.085Z,93742.16
2023-03-26T11:12:00.567Z,93754.72
2023-03-26T11:14:35.216Z,93749.25
2023-03-26T11:17:14.807Z,93730.75
2023-03-26T11:20:04.946Z,93736.75
2023-03-26T11:22:42.469Z,93732.53
2023-03-26T11:25:35.878Z,93726.19
2023-03-26T11:28:14.069Z,93733.28
2023-03-26T11:30:48.847Z,93720.53
2023-03-26T11:33:20.777Z,93725.66
2023-03-26T11:35:49.803Z,93727.78
2023-03-26T11:38:23.148Z,93726.28
2023-03-26T11:40:53.327Z,93720.19
2023-03-26T11:43:24.591Z,93718.19
2023-03-26T11:45:51.858Z,93729.78
2023-03-26T11:48:23.015Z,93722.66
2023-03-26T11:50:55.766Z,93713.78
2023-03-26T11:53:29.059Z,93722.44
2023-03-26T11:56:03.650Z,93714.28
2023-03-26T11:58:34.323Z,93706.88
2023-03-26T12:01:04.645Z,93712.19
2023-03-26T12:03:31.907Z,93698.19
2023-03-26T12:05:59.889Z,93710.94
2023-03-26T12:08:33.632Z,93714.34
2023-03-26T12:11:06.375Z,93710.31
2023-03-26T12:13:36.602Z,93719.63
2023-03-26T12:16:09.758Z,93716.72
2023-03-26T12:18:39.749Z,93728.75
2023-03-26T12:21:09.106Z,93725.56
2023-03-26T12:23:50.902Z,93740.25
2023-03-26T12:26:20.656Z,93746.53
2023-03-26T12:28:49.288Z,93737.63
2023-03-26T12:31:20.579Z,93728.66
2023-03-26T12:34:04.390Z,93753.38
2023-03-26T12:36:35.848Z,93761.00
2023-03-26T12:40:10.275Z,93770.28
2023-03-26T12:44:53.470Z,93745.50
2023-03-26T12:45:14.753Z,93739.84
2023-03-26T12:47:57.876Z,93746.16
2023-03-26T12:50:38.433Z,93735.16
2023-03-26T12:53:28.239Z,93739.63
2023-03-26T12:56:01.391Z,93727.53
2023-03-26T12:58:43.974Z,93733.91
2023-03-26T13:01:22.204Z,93747.34
2023-03-26T13:04:07.054Z,93735.72
2023-03-26T13:06:59.402Z,93727.44
2023-03-26T13:09:52.840Z,93712.19
2023-03-26T13:12:34.103Z,93708.00
2023-03-26T13:15:17.697Z,93715.84
2023-03-26T13:17:53.874Z,93712.13
2023-03-26T13:20:28.109Z,93695.53
2023-03-26T13:23:01.325Z,93676.53
2023-03-26T13:25:37.664Z,93666.50
2023-03-26T13:28:19.668Z,93649.91
2023-03-26T13:30:52.626Z,93659.16
2023-03-26T13:33:31.593Z,93652.28
2023-03-26T13:36:21.803Z,93649.91
2023-03-26T13:39:03.415Z,93648.56
2023-03-26T13:41:43.298Z,93628.47
2023-03-26T13:44:18.390Z,93642.78
2023-03-26T13:46:48.912Z,93645.50
2023-03-26T13:49:19.065Z,93645.38
2023-03-26T13:51:51.380Z,93639.97
2023-03-26T13:54:25.955Z,93628.91
2023-03-26T13:56:59.022Z,93633.19
2023-03-26T13:59:34.724Z,93627.16
2023-03-26T14:02:08.798Z,93616.53
2023-03-26T14:04:39.130Z,93619.47
2023-03-26T14:07:12.414Z,93621.88
2023-03-26T14:09:46.241Z,93625.56
2023-03-26T14:12:30.676Z,93604.84
2023-03-26T14:15:01.894Z,93620.78
2023-03-26T14:17:34.502Z,93615.56
2023-03-26T14:20:48.382Z,93611.16
2023-03-26T14:23:31.098Z,93609.66
2023-03-26T14:26:13.971Z,93610.25
2023-03-26T14:29:08.837Z,93603.94
2023-03-26T14:31:42.809Z,93598.66
2023-03-26T14:34:28.952Z,93594.69
2023-03-26T14:37:27.484Z,93596.31
2023-03-26T14:40:14.808Z,93596.78
2023-03-26T14:42:43.472Z,93584.38
2023-03-26T14:45:32.077Z,93591.78
2023-03-26T14:48:17.491Z,93590.75
2023-03-26T14:51:00.928Z,93592.34
2023-03-26T14:53:33.457Z,93584.16
2023-03-26T14:56:41.833Z,93574.97
2023-03-26T14:59:41.096Z,93574.66
2023-03-26T15:02:55.534Z,93571.78
2023-03-26T15:05:59.255Z,93573.34
2023-03-26T15:09:10.426Z,93575.69
2023-03-26T15:11:45.912Z,93566.72
2023-03-26T15:14:48.227Z,93572.81
2023-03-26T15:17:49.716Z,93577.03
2023-03-26T15:20:49.331Z,93573.59
2023-03-26T15:23:36.636Z,93577.84
2023-03-26T15:26:37.128Z,93571.25
2023-03-26T15:29:28.336Z,93580.22
2023-03-26T15:32:22.286Z,93575.69
2023-03-26T15:35:20.799Z,93566.72
2023-03-26T15:38:22.283Z,93570.97
2023-03-26T15:41:12.444Z,93578.66
2023-03-26T15:44:26.563Z,93576.81
2023-03-26T15:47:20.004Z,93570.50
2023-03-26T15:49:54.783Z,93571.75
2023-03-26T15:52:28.309Z,93574.94
2023-03-26T15:55:02.316Z,93567.81
2023-03-26T15:57:34.408Z,93561.47
2023-03-26T16:00:19.789Z,93564.38
2023-03-26T16:02:58.024Z,93568.59
2023-03-26T16:05:37.256Z,93570.16
2023-03-26T16:08:16.570Z,93577.03
2023-03-26T16:10:49.555Z,93580.47
2023-03-26T16:13:37.729Z,93581.00
2023-03-26T16:16:24.502Z,93581.00
2023-03-26T16:18:58.408Z,93572.03
2023-03-26T16:21:45.744Z,93579.41
2023-03-26T16:24:24.943Z,93575.72
2023-03-26T16:27:21.127Z,93580.75
2023-03-26T16:30:25.514Z,93588.53
2023-03-26T16:32:58.556Z,93578.78
2023-03-26T16:36:02.044Z,93561.59
2023-03-26T16:38:50.134Z,93575.59
2023-03-26T16:41:18.326Z,93571.13
2023-03-26T16:43:59.501Z,93551.94
2023-03-26T16:46:36.401Z,93553.56
2023-03-26T16:49:10.020Z,93559.91
2023-03-26T16:52:02.401Z,93544.88
2023-03-26T16:54:41.037Z,93532.59
2023-03-26T16:57:21.689Z,93526.00
2023-03-26T17:00:06.793Z,93532.56
2023-03-26T17:02:46.272Z,93553.34
2023-03-26T17:05:19.800Z,93562.06
2023-03-26T17:07:57.202Z,93559.72
2023-03-26T17:10:31.951Z,93569.28
2023-03-26T17:13:06.333Z,93609.03
2023-03-26T17:15:42.597Z,93628.91
2023-03-26T17:18:30.389Z,93653.78
2023-03-26T17:21:02.423Z,93677.44
2023-03-26T17:23:49.886Z,93708.00
2023-03-26T17:26:24.796Z,93791.94
2023-03-26T17:29:01.845Z,93769.63
2023-03-26T17:31:38.313Z,93764.50
2023-03-26T17:34:33.012Z,93740.44
2023-03-26T17:37:00.929Z,93725.56
2023-03-26T17:40:12.169Z,93737.59
2023-03-26T17:43:01.093Z,93739.00
2023-03-26T17:45:30.908Z,93729.50
2023-03-26T17:48:02.273Z,93714.38
2023-03-26T17:50:32.556Z,93719.25
2023-03-26T17:53:01.993Z,93713.03
2023-03-26T17:55:31.509Z,93701.59
2023-03-26T17:58:01.353Z,93695.69
2023-03-26T18:00:31.134Z,93693.28
2023-03-26T18:03:01.669Z,93685.72
2023-03-26T18:05:30.622Z,93681.13
2023-03-26T18:08:37.076Z,93667.38
2023-03-26T18:11:21.842Z,93673.38
2023-03-26T18:14:08.148Z,93679.28
2023-03-26T18:16:38.935Z,93669.81
2023-03-26T18:19:22.339Z,93661.53
2023-03-26T18:21:51.306Z,93676.09
2023-03-26T18:24:22.096Z,93681.06
2023-03-26T18:26:53.908Z,93677.72
2023-03-26T18:29:24.728Z,93685.78
2023-03-26T18:31:55.149Z,93686.06
2023-03-26T18:34:22.392Z,93671.72
2023-03-26T18:37:01.086Z,93673.34
2023-03-26T18:39:28.253Z,93676.63
2023-03-26T18:41:55.052Z,93661.31
2023-03-26T18:44:23.203Z,93658.53
2023-03-26T18:46:54.504Z,93652.50
2023-03-26T18:49:23.890Z,93662.81
2023-03-26T18:51:57.340Z,93648.22
2023-03-26T18:54:29.905Z,93658.88
2023-03-26T18:56:58.860Z,93664.69
2023-03-26T18:59:29.111Z,93669.41
2023-03-26T19:01:57.660Z,93663.31
2023-03-26T19:04:25.678Z,93657.47
2023-03-26T19:06:56.876Z,93663.03
2023-03-26T19:09:31.559Z,93669.28
2023-03-26T19:12:05.972Z,93663.31
2023-03-26T19:14:36.941Z,93677.44
2023-03-26T19:17:06.865Z,93675.28
2023-03-26T19:19:37.587Z,93679.56
2023-03-26T19:22:04.655Z,93673.59
2023-03-26T19:24:31.803Z,93677.06
2023-03-26T19:26:58.575Z,93662.84
2023-03-26T19:29:28.717Z,93676.53
2023-03-26T19:32:03.994Z,93653.22
2023-03-26T19:34:33.702Z,93638.03
2023-03-26T19:37:01.412Z,93639.91
2023-03-26T19:39:38.589Z,93648.94
2023-03-26T19:42:06.442Z,93649.97
2023-03-26T19:44:39.461Z,93662.75
2023-03-26T19:47:14.976Z,93652.31
2023-03-26T19:49:49.888Z,93651.44
2023-03-26T19:52:21.736Z,93645.88
2023-03-26T19:55:00.349Z,93653.09
2023-03-26T19:57:29.059Z,93660.03
2023-03-26T19:59:56.026Z,93654.28
2023-03-26T20:02:26.570Z,93657.56
2023-03-26T20:04:53.299Z,93649.84
2023-03-26T20:07:22.062Z,93649.81
2023-03-26T20:10:03.113Z,93640.38
2023-03-26T20:12:29.763Z,93646.38
2023-03-26T20:14:56.767Z,93639.31
2023-03-26T20:17:24.887Z,93631.97
2023-03-26T20:19:52.433Z,93641.91
2023-03-26T20:22:23.587Z,93637.53
2023-03-26T20:24:51.318Z,93640.81
2023-03-26T20:27:18.795Z,93645.16
2023-03-26T20:29:45.894Z,93644.09
2023-03-26T20:32:19.474Z,93638.59
2023-03-26T20:34:49.126Z,93619.41
2023-03-26T20:37:16.038Z,93632.75
2023-03-26T20:39:43.144Z,93622.09
2023-03-26T20:42:12.219Z,93632.56
2023-03-26T20:44:40.568Z,93629.84
2023-03-26T20:47:09.212Z,93639.28
2023-03-26T20:49:35.855Z,93628.50
2023-03-26T20:52:03.998Z,93628.28
2023-03-26T20:54:30.667Z,93628.00
2023-03-26T20:56:58.062Z,93622.91
2023-03-26T20:59:27.446Z,93623.16
2023-03-26T21:01:56.388Z,93619.75
2023-03-26T21:04:23.318Z,93617.63
2023-03-26T21:06:50.114Z,93616.78
2023-03-26T21:09:23.550Z,93618.97
2023-03-26T21:11:56.979Z,93620.03
2023-03-26T21:14:26.983Z,93617.25
2023-03-26T21:16:54.186Z,93613.66
2023-03-26T21:19:21.514Z,93613.13
2023-03-26T21:21:57.662Z,93619.50
2023-03-26T21:24:37.566Z,93613.72
2023-03-26T21:27:12.563Z,93626.91
2023-03-26T21:29:40.966Z,93631.13
2023-03-26T21:32:10.479Z,93627.16
2023-03-26T21:34:42.001Z,93623.09
2023-03-26T21:37:12.844Z,93629.84
2023-03-26T21:39:44.737Z,93628.31
2023-03-26T21:42:12.333Z,93629.38
2023-03-26T21:44:39.686Z,93633.75
2023-03-26T21:47:09.809Z,93630.41
2023-03-26T21:49:38.497Z,93635.03
2023-03-26T21:52:06.161Z,93632.81
2023-03-26T21:54:33.252Z,93632.72
2023-03-26T21:57:33.105Z,93624.94
2023-03-26T22:00:14.256Z,93625.91
2023-03-26T22:02:51.397Z,93623.78
2023-03-26T22:05:19.881Z,93633.00
2023-03-26T22:07:56.510Z,93625.34
2023-03-26T22:10:23.399Z,93623.69
2023-03-26T22:12:51.645Z,93633.34
2023-03-26T22:15:18.973Z,93621.34
2023-03-26T22:17:46.169Z,93625.31
2023-03-26T22:20:14.716Z,93618.63
2023-03-26T22:22:48.716Z,93622.53
2023-03-26T22:25:15.650Z,93621.25
2023-03-26T22:27:43.808Z,93622.13
2023-03-26T22:30:13.854Z,93621.13
2023-03-26T22:32:40.500Z,93639.59
2023-03-26T22:35:07.919Z,93638.19
2023-03-26T22:37:35.580Z,93635.13
2023-03-26T22:40:02.205Z,93623.88
2023-03-26T22:42:28.716Z,93627.84
2023-03-26T22:44:55.313Z,93628.81
2023-03-26T22:47:23.270Z,93628.25
2023-03-26T22:49:49.810Z,93622.53
2023-03-26T22:52:16.399Z,93617.31
2023-03-26T22:54:43.034Z,93620.44
2023-03-26T22:57:09.825Z,93616.94
2023-03-26T22:59:36.648Z,93613.66
2023-03-26T23:02:03.405Z,93612.81
2023-03-26T23:04:32.352Z,93615.63
2023-03-26T23:06:59.515Z,93618.16
2023-03-26T23:09:26.248Z,93613.78
2023-03-26T23:11:52.838Z,93603.22
2023-03-26T23:14:19.386Z,93602.03
2023-03-26T23:16:45.978Z,93600.69
2023-03-26T23:19:12.494Z,93600.94
2023-03-26T23:21:40.377Z,93598.41
2023-03-26T23:24:07.048Z,93596.63
2023-03-26T23:26:43.942Z,93592.97
2023-03-26T23:29:16.551Z,93594.31
2023-03-26T23:31:43.194Z,93598.03
2023-03-26T23:34:10.944Z,93603.25
2023-03-26T23:36:37.494Z,93597.59
2023-03-26T23:39:05.400Z,93600.59
2023-03-26T23:41:31.949Z,93606.00
2023-03-26T23:43:58.516Z,93606.50
2023-03-26T23:46:30.176Z,93600.75
2023-03-26T23:48:59.746Z,93598.84
2023-03-26T23:51:26.620Z,93598.31
2023-03-26T23:53:53.724Z,93596.56
2023-03-26T23:56:21.857Z,93596.50
2023-03-26T23:58:49.019Z,93593.59
